Terminal Aerodrome Forecast
Issued by NWS

Home | Current Version | Previous Version | Text Only | Print | Product List | Glossary On
Versions: 1 2 3 4 5 6 7 8 9 10 11 12 13 14 15 16 17 18 19 20 21 22 23 24 25 26 27 28 29 30 31 32 33 34 35
000
FTUS43 KDLH 211600 AAD
TAFHYR
TAF AMD
KHYR 211645Z 2117/2212 VRB06KT P6SM VCSH SCT008 BKN045
      TEMPO 2117/2118 BKN008
     FM212100 14005KT P6SM -SHRA VCTS BKN015CB OVC035
     FM220100 VRB03KT P6SM SCT050 BKN150
     FM220800 11003KT 4SM BR SCT150=

USA.gov is the U.S. government's official web portal to all federal, state and local government web resources and services.